Ilyas Efendiyev — 9HES8 — position and weather

sailwx.info

Track history (hours):
 
Tides and Currents Weather Stations Pressure Air Temp Water Temp Dewpoint Dewpoint Depression Visibility Wind Speed Wind Dir Waves Ship Positions

Ilyas Efendiyev

Last reported at 2016-Aug-19 21:09 UTC. Time now 2016-Aug-29 19:52 UTC.
Position N 45°52' E 036°60'.
Warning: this ship's position is 9 days out of date.

Length 140 m; draft 3.5 m.

Type: Cargo ship. MMSI: 215901000.

Date/timePositionNaut miles runAvg speedWind from/ knotsBaromVisibWave heightAir tempDewpointWater temp
2016-Aug-19 21:09N 45°52' E 036°60'8 9.6
2016-Aug-19 20:21N 45°44' E 036°56'12 9.5
2016-Aug-19 19:04N 45°33' E 036°48'5 9.4
2016-Aug-19 18:33N 45°30' E 036°44'9 9.2
2016-Aug-19 17:34N 45°21' E 036°39'9 9.2
2016-Aug-19 16:34N 45°16' E 036°28'5 4.1
2016-Aug-19 15:25N 45°11' E 036°29'0 0.0
2016-Aug-19 14:33N 45°11' E 036°29'1 1.1
2016-Aug-19 13:33N 45°10' E 036°28'413 9.0
2016-Aug-17 15:32N 40°59' E 028°60'  
Track history (hours):
 
Tides and Currents Weather Stations Pressure Air Temp Water Temp Dewpoint Dewpoint Depression Visibility Wind Speed Wind Dir Waves Ship Positions

Ilyas Efendiyev

Last reported at 2016-Aug-19 21:09 UTC. Time now 2016-Aug-29 19:52 UTC.
Position N 45°52' E 036°60'.
Warning: this ship's position is 9 days out of date.

Length 140 m; draft 3.5 m.

Type: Cargo ship. MMSI: 215901000.

Date/timePositionNaut miles runAvg speedWind from/ knotsBaromVisibWave heightAir tempDewpointWater temp
2016-Aug-19 21:09N 45°52' E 036°60'8 9.6
2016-Aug-19 20:21N 45°44' E 036°56'12 9.5
2016-Aug-19 19:04N 45°33' E 036°48'5 9.4
2016-Aug-19 18:33N 45°30' E 036°44'9 9.2
2016-Aug-19 17:34N 45°21' E 036°39'9 9.2
2016-Aug-19 16:34N 45°16' E 036°28'5 4.1
2016-Aug-19 15:25N 45°11' E 036°29'0 0.0
2016-Aug-19 14:33N 45°11' E 036°29'1 1.1
2016-Aug-19 13:33N 45°10' E 036°28'413 9.0
2016-Aug-17 15:32N 40°59' E 028°60'  

Dump ship's entire track history